Pagina principale
METAR-TAF:

METAR-TAF

Aeroporti :

Aeroporto di Ouagadougou

Ouagadougou, Burkina Faso

latitudine: 12-21N, longitudine: 001-31W, altezza: 316 m

Osservazione

Il bollettino è stato emesso 55 minuti fa, alle 12:00 UTC
Vento 8 kt da est
Temperature 33°C
Umidità 12%
Pressione 1015 hPa
Visibilità 10 km o più
nessuna nube inferiore a 1500 m e nessun cumulonembo

METAR: DFFD 171200Z 08008KT CAVOK 33/00 Q1015 NOSIG

Ora: 12:55 (12:55 UTC)

Previsione

Il bollettino è stato emesso 1 ora e 55 minuti fa, alle 11:00 UTC
Previsione valida dal 17 alle 12 UTC al 18 alle 18 UTC
Vento 8 kt da est/nord-est
Visibilità: 8000 m
Temporaneamente
dal 17 alle 17 UTC al 17 alle 20 UTC
Visibilità: 4000 m
polvere diffusa
Temporaneamente
dal 18 alle 06 UTC al 18 alle 10 UTC
Visibilità: 4000 m
polvere diffusa

TAF: DFFD 171100Z 1712/1818 06008KT 8000 NSC TEMPO 1717/1720 4000 DU TEMPO 1806/1810 4000 DU

Osservazioni e previsioni meteorologiche di più di 4000 aeroporti (messaggi METAR e TAF).

Le stazioni disponibili sono rappresentate dai dischi gialli e rossi sulla carta.

Puntare il mouse per vedere il nome della stazione.

Clicca sopra per visualizzare le osservazioni e previsioni meteorologiche.

Per cambiare la mappa : fare clic sui pulsanti verdi con una croce nera per ingrandire, il pulsante verde con un trattino per diminuire, o sulla freccia verde per le mappe adiacenti.


METAR-TAF: